Time;durP1;ratioP1;P1;durP2;ratioP2;P2;SDS_P1;SDS_P2;PMS_P1;PMS_P2;Temp;Humidity;BMP_temperature;BMP_pressure;BME280_temperature;BME280_humidity;BME280_pressure;Samples;Min_cycle;Max_cycle;Signal;HPM_P1;HPM_P2
2023/01/31 00:00:48;;;;;;;16.52;2.55;;;;;;;-148.88;100.00;77130.25;5057495;28;20044;-79
2023/01/31 00:03:13;;;;;;;19.08;2.50;;;;;;;-148.88;100.00;77134.31;5055125;28;20029;-79
2023/01/31 00:05:39;;;;;;;14.23;2.15;;;;;;;-148.88;100.00;77132.28;5056273;28;20029;-79
2023/01/31 00:08:04;;;;;;;13.32;2.15;;;;;;;-148.88;100.00;77134.31;5055163;28;20028;-79
2023/01/31 00:10:29;;;;;;;12.90;2.33;;;;;;;-148.88;100.00;77124.16;5055299;28;20021;-79
2023/01/31 00:12:56;;;;;;;13.40;2.08;;;;;;;-148.88;100.00;77120.09;5055286;28;20021;-79
2023/01/31 00:15:21;;;;;;;20.70;2.90;;;;;;;-148.88;100.00;77126.19;5056109;28;20474;-79
2023/01/31 00:17:46;;;;;;;10.90;2.25;;;;;;;-148.88;100.00;77128.22;5057066;28;20023;-79
2023/01/31 00:20:11;;;;;;;14.70;2.47;;;;;;;-148.88;100.00;77122.13;5055659;28;20041;-79
2023/01/31 00:22:37;;;;;;;13.82;1.98;;;;;;;-148.88;100.00;77118.06;5056430;28;20104;-78
2023/01/31 00:25:03;;;;;;;13.52;2.03;;;;;;;-148.88;100.00;77109.94;5054537;28;20509;-79
2023/01/31 00:27:28;;;;;;;13.02;2.00;;;;;;;-148.88;100.00;77138.38;5054532;28;20020;-79
2023/01/31 00:29:54;;;;;;;15.23;1.83;;;;;;;-148.88;100.00;77132.28;5054766;28;20429;-79
2023/01/31 00:32:19;;;;;;;16.00;2.42;;;;;;;-148.88;100.00;77128.22;5056111;28;20024;-79
2023/01/31 00:34:44;;;;;;;18.13;2.28;;;;;;;-148.88;100.00;77103.81;5055346;28;20094;-79
2023/01/31 00:37:10;;;;;;;19.15;2.75;;;;;;;-148.88;100.00;77101.78;5055751;28;20021;-79
2023/01/31 00:39:35;;;;;;;11.02;2.13;;;;;;;-148.88;100.00;77126.19;5056910;28;20025;-79
2023/01/31 00:42:00;;;;;;;13.80;1.88;;;;;;;-148.88;100.00;77109.94;5054798;28;20029;-79
2023/01/31 00:44:25;;;;;;;14.82;2.28;;;;;;;-148.88;99.93;77101.78;5056186;28;20107;-79
2023/01/31 00:46:51;;;;;;;14.55;2.55;;;;;;;-148.88;99.86;77093.66;5054967;28;20017;-79
2023/01/31 00:49:16;;;;;;;13.20;2.08;;;;;;;-148.88;100.00;77132.28;5055726;28;20101;-80
2023/01/31 00:51:43;;;;;;;22.92;2.17;;;;;;;-148.88;99.83;77114.00;5055119;28;20025;-80
2023/01/31 00:54:09;;;;;;;14.25;2.30;;;;;;;-148.88;99.74;77109.94;5054972;28;20541;-79
2023/01/31 00:56:34;;;;;;;13.75;2.50;;;;;;;-148.88;100.00;77126.19;5056050;28;20114;-79
2023/01/31 00:58:59;;;;;;;9.65;1.55;;;;;;;-148.88;99.72;77126.19;5054045;28;20043;-78
2023/01/31 01:01:27;;;;;;;15.05;2.00;;;;;;;-148.88;99.86;77101.78;5055031;28;20092;-78
2023/01/31 01:03:54;;;;;;;14.30;2.22;;;;;;;-148.88;99.32;77097.72;5055476;28;20104;-79
2023/01/31 01:06:20;;;;;;;14.95;1.80;;;;;;;-148.88;99.42;77103.81;5054667;28;20021;-79
2023/01/31 01:08:48;;;;;;;12.45;1.67;;;;;;;-148.88;99.14;77101.78;5054435;28;20025;-79
2023/01/31 01:11:19;;;;;;;16.00;2.58;;;;;;;-148.88;99.32;77105.84;5056102;28;20105;-79
2023/01/31 01:13:44;;;;;;;8.30;1.70;;;;;;;-148.88;99.08;77101.78;5053971;28;20021;-79
2023/01/31 01:16:15;;;;;;;14.27;2.05;;;;;;;-148.88;98.94;77109.94;5055792;28;20091;-79
2023/01/31 01:18:43;;;;;;;10.38;2.03;;;;;;;-148.88;98.50;77109.94;5056282;28;20124;-79
2023/01/31 01:21:16;;;;;;;13.45;2.38;;;;;;;-148.88;98.50;77095.69;5054510;28;20474;-79
2023/01/31 01:23:42;;;;;;;20.67;2.80;;;;;;;-148.88;98.10;77081.47;5054267;28;20435;-79
2023/01/31 01:26:19;;;;;;;16.50;2.70;;;;;;;-148.88;98.93;77114.00;5055866;28;20028;-79
2023/01/31 01:28:45;;;;;;;12.25;1.90;;;;;;;-148.88;98.45;77101.78;5055947;28;20111;-79
2023/01/31 01:31:12;;;;;;;16.52;2.28;;;;;;;-148.88;99.18;77114.00;5055687;28;20029;-79
2023/01/31 01:33:37;;;;;;;13.15;2.08;;;;;;;-148.88;98.49;77093.66;5055533;28;20102;-79
2023/01/31 01:36:05;;;;;;;12.60;2.17;;;;;;;-148.88;98.62;77097.72;5054892;28;20021;-79
2023/01/31 01:38:33;;;;;;;13.13;3.00;;;;;;;-148.88;98.15;77101.78;5055068;28;20490;-78
2023/01/31 01:40:59;;;;;;;14.73;2.13;;;;;;;-148.88;98.66;77114.00;5054985;28;20036;-78
2023/01/31 01:43:41;;;;;;;9.75;2.70;;;;;;;-148.88;98.18;77105.84;5055256;28;20021;-79
2023/01/31 01:46:09;;;;;;;10.85;2.85;;;;;;;-148.88;98.68;77109.94;5055225;28;20120;-79
2023/01/31 01:48:36;;;;;;;14.75;2.15;;;;;;;-148.88;98.53;77089.59;5055740;28;20036;-79
2023/01/31 01:51:03;;;;;;;14.07;1.98;;;;;;;-148.88;97.88;77081.47;5055164;28;20025;-79
2023/01/31 01:53:29;;;;;;;9.27;2.08;;;;;;;-148.88;98.29;77093.66;5054633;28;20471;-79
2023/01/31 01:56:02;;;;;;;9.95;1.70;;;;;;;-148.88;97.52;77075.38;5054949;28;20052;-79
2023/01/31 01:58:35;;;;;;;17.98;2.28;;;;;;;-148.88;97.78;77081.47;5054100;28;20024;-79
2023/01/31 02:01:04;;;;;;;18.00;3.92;;;;;;;-148.88;97.80;77089.59;5054400;28;20033;-79
2023/01/31 02:03:29;;;;;;;15.07;2.70;;;;;;;-148.88;98.20;77095.69;5055456;28;20028;-79
2023/01/31 02:06:00;;;;;;;12.85;1.98;;;;;;;-148.88;98.43;77091.63;5055200;28;20033;-79
2023/01/31 02:08:28;;;;;;;13.02;2.55;;;;;;;-148.88;98.73;77116.03;5055513;28;20017;-79
2023/01/31 02:11:06;;;;;;;10.93;2.03;;;;;;;-148.88;97.71;77101.78;5063866;22;20049;-85
2023/01/31 02:13:32;;;;;;;9.25;1.88;;;;;;;-148.88;98.02;77134.31;5054357;28;20117;-85
2023/01/31 02:16:00;;;;;;;14.07;2.47;;;;;;;-148.88;96.93;77114.00;5055598;28;20017;-85
2023/01/31 02:18:26;;;;;;;20.88;2.90;;;;;;;-148.88;96.83;77118.06;5054917;28;20472;-85
2023/01/31 02:21:07;;;;;;;16.63;3.03;;;;;;;-148.88;96.23;77105.84;5055322;28;20067;-85
2023/01/31 02:23:42;;;;;;;10.93;2.88;;;;;;;-148.88;96.32;77107.91;5119352;22;20068;-79
2023/01/31 02:26:31;;;;;;;25.17;2.70;;;;;;;-148.88;95.55;77097.72;5057820;28;20080;-80
2023/01/31 02:29:11;;;;;;;10.43;1.80;;;;;;;-148.88;95.67;77118.06;5058316;28;20103;-80
2023/01/31 02:32:03;;;;;;;13.00;1.80;;;;;;;-148.88;95.33;77111.97;5057506;28;20060;-80
2023/01/31 02:34:48;;;;;;;22.10;2.58;;;;;;;-148.88;94.75;77111.97;5040595;28;20067;-80
2023/01/31 02:37:53;;;;;;;19.25;2.60;;;;;;;-148.88;96.69;77164.78;5058677;28;20096;-80
2023/01/31 02:40:27;;;;;;;14.73;2.15;;;;;;;-148.88;96.30;77168.84;5053384;28;20043;-80
2023/01/31 02:43:11;;;;;;;14.77;1.80;;;;;;;-148.88;96.83;77191.19;5059898;28;20107;-79
2023/01/31 02:45:57;;;;;;;12.57;2.40;;;;;;;-148.88;97.42;77191.19;5056569;28;20028;-80
2023/01/31 02:48:51;;;;;;;17.25;2.70;;;;;;;-148.88;98.07;77217.63;5057374;28;20017;-80
2023/01/31 02:51:35;;;;;;;15.18;2.10;;;;;;;-148.88;97.83;77201.34;5059058;28;20017;-80
2023/01/31 02:54:06;;;;;;;15.57;1.92;;;;;;;-148.88;97.30;77199.31;5056948;28;20160;-80
2023/01/31 02:56:35;;;;;;;16.52;2.65;;;;;;;-148.88;97.82;77211.53;5055806;28;20070;-79
2023/01/31 02:59:12;;;;;;;20.42;2.80;;;;;;;-148.88;98.81;77229.81;5057093;28;20159;-79
2023/01/31 03:01:42;;;;;;;15.15;2.47;;;;;;;-148.88;98.70;77237.94;5057408;28;20361;-80
2023/01/31 03:04:10;;;;;;;10.85;2.13;;;;;;;-148.88;98.55;77246.06;5058272;28;20056;-80
2023/01/31 03:06:35;;;;;;;25.85;3.35;;;;;;;-148.88;99.05;77262.31;5057996;28;20013;-80
2023/01/31 03:09:10;;;;;;;8.07;1.98;;;;;;;-148.88;99.52;77256.22;5057944;28;20040;-80
2023/01/31 03:11:41;;;;;;;18.55;3.08;;;;;;;-148.88;99.62;77235.91;5056339;28;20024;-80
2023/01/31 03:14:14;;;;;;;15.57;2.80;;;;;;;-148.88;99.54;77248.09;5056388;28;20029;-80
2023/01/31 03:19:46;;;;;;;11.15;2.30;;;;;;;-148.88;100.00;77233.88;5058331;28;20056;-79
2023/01/31 03:22:16;;;;;;;13.75;2.33;;;;;;;-148.88;99.60;77235.91;5055900;28;20025;-79
2023/01/31 03:24:43;;;;;;;8.05;1.45;;;;;;;-148.88;99.88;77223.72;5054892;28;20494;-79
2023/01/31 03:27:10;;;;;;;13.57;2.58;;;;;;;-148.88;100.00;77260.28;5056567;28;20120;-80
2023/01/31 03:29:37;;;;;;;13.60;2.13;;;;;;;-148.88;100.00;77231.84;5056901;28;20032;-79
2023/01/31 03:32:24;;;;;;;15.95;2.10;;;;;;;-148.88;100.00;77221.69;5056125;28;20033;-80
2023/01/31 03:34:50;;;;;;;17.65;2.88;;;;;;;-148.88;100.00;77250.13;5056232;28;20029;-80
2023/01/31 03:37:31;;;;;;;15.32;4.20;;;;;;;-148.88;100.00;77239.97;5055733;28;20464;-80
2023/01/31 03:40:00;;;;;;;14.20;2.85;;;;;;;-148.88;100.00;77250.13;5057149;28;20480;-80
2023/01/31 03:42:47;;;;;;;16.10;3.47;;;;;;;-148.88;100.00;77244.03;5055985;28;20021;-79
2023/01/31 03:45:51;;;;;;;13.38;2.90;;;;;;;-148.88;100.00;77235.91;5062852;28;20032;-80
2023/01/31 03:48:21;;;;;;;13.30;3.08;;;;;;;-148.88;100.00;77235.91;5023022;28;20061;-80
2023/01/31 03:50:52;;;;;;;13.52;2.92;;;;;;;-148.88;100.00;77229.81;5048133;28;20032;-80
2023/01/31 03:53:36;;;;;;;13.25;3.53;;;;;;;-148.88;100.00;77229.81;5058076;28;20031;-80
2023/01/31 03:56:11;;;;;;;16.73;2.88;;;;;;;-148.88;100.00;77256.22;5057165;28;20108;-79
2023/01/31 03:58:42;;;;;;;9.45;2.40;;;;;;;-148.88;100.00;77258.25;5054175;28;20043;-79
2023/01/31 04:01:09;;;;;;;13.05;3.58;;;;;;;-148.88;100.00;77252.16;5055593;28;20103;-79
2023/01/31 04:03:37;;;;;;;19.05;3.33;;;;;;;-148.88;100.00;77248.09;5054784;28;20049;-80
2023/01/31 04:06:03;;;;;;;25.15;3.35;;;;;;;-148.88;100.00;77235.91;5054929;28;20487;-80
2023/01/31 04:08:30;;;;;;;17.45;3.55;;;;;;;-148.88;100.00;77248.09;5054918;28;20051;-80
2023/01/31 04:10:57;;;;;;;10.90;3.10;;;;;;;-148.88;100.00;77215.59;5056546;28;20021;-80
2023/01/31 04:13:23;;;;;;;13.35;2.67;;;;;;;-148.88;100.00;77239.97;5054881;28;20020;-80
2023/01/31 04:15:48;;;;;;;14.95;2.80;;;;;;;-148.88;100.00;77244.03;5055021;28;20044;-80
2023/01/31 04:18:13;;;;;;;9.63;2.50;;;;;;;-148.88;100.00;77215.59;5056602;28;20388;-80
2023/01/31 04:20:39;;;;;;;13.48;3.08;;;;;;;-148.88;100.00;77227.78;5056323;28;20024;-80
2023/01/31 04:23:04;;;;;;;8.00;2.17;;;;;;;-148.88;100.00;77219.66;5055076;28;20025;-80
2023/01/31 04:25:29;;;;;;;12.43;3.20;;;;;;;-148.88;100.00;77203.41;5054812;28;20029;-81
2023/01/31 04:27:55;;;;;;;11.55;2.58;;;;;;;-148.88;100.00;77223.72;5056749;28;20100;-80
2023/01/31 04:30:20;;;;;;;13.27;2.55;;;;;;;-148.88;100.00;77197.28;5056225;28;20032;-80
2023/01/31 04:32:46;;;;;;;15.05;3.47;;;;;;;-148.88;99.97;77185.09;5056016;28;20032;-79
2023/01/31 04:35:11;;;;;;;12.23;2.88;;;;;;;-148.88;100.00;77191.19;5052562;28;20462;-81
2023/01/31 04:37:36;;;;;;;13.43;2.90;;;;;;;-148.88;99.15;77179.00;5054751;28;20077;-80
2023/01/31 04:40:02;;;;;;;10.85;3.83;;;;;;;-148.88;100.00;77239.97;5053991;28;20401;-80
2023/01/31 04:42:28;;;;;;;15.68;2.75;;;;;;;-148.88;100.00;77231.84;5056503;28;20029;-83
2023/01/31 04:44:53;;;;;;;13.85;2.70;;;;;;;-148.88;100.00;77227.78;5055295;28;20382;-81
2023/01/31 04:47:18;;;;;;;11.98;3.10;;;;;;;-148.88;100.00;77223.72;5056216;28;20032;-81
2023/01/31 04:49:44;;;;;;;15.15;3.80;;;;;;;-148.88;100.00;77239.97;5056492;28;20071;-79
2023/01/31 04:52:10;;;;;;;13.60;2.75;;;;;;;-148.88;100.00;77229.81;5054906;28;20040;-79
2023/01/31 04:54:35;;;;;;;21.10;3.20;;;;;;;-148.88;100.00;77235.91;5055489;28;20024;-80
2023/01/31 04:57:01;;;;;;;15.55;2.75;;;;;;;-148.88;100.00;77211.53;5056454;28;20054;-80
2023/01/31 04:59:26;;;;;;;11.52;2.78;;;;;;;-148.88;100.00;77207.47;5054965;28;20434;-80
2023/01/31 05:01:53;;;;;;;11.80;4.25;;;;;;;-148.88;100.00;77223.72;5056153;28;20060;-82
2023/01/31 05:04:18;;;;;;;15.57;3.17;;;;;;;-148.88;100.00;77217.63;5056243;28;20449;-80
2023/01/31 05:06:43;;;;;;;19.98;3.95;;;;;;;-148.88;100.00;77221.69;5054591;28;20458;-81
2023/01/31 05:09:10;;;;;;;26.80;3.20;;;;;;;-148.88;100.00;77191.19;5055781;28;20558;-79
2023/01/31 05:11:35;;;;;;;11.30;3.20;;;;;;;-148.88;100.00;77207.47;5052293;28;20025;-79
2023/01/31 05:14:01;;;;;;;17.33;3.33;;;;;;;-148.88;100.00;77191.19;5053590;28;20391;-79
2023/01/31 05:16:26;;;;;;;15.02;4.07;;;;;;;-148.88;100.00;77209.50;5053882;28;20025;-80
2023/01/31 05:18:51;;;;;;;14.32;2.78;;;;;;;-148.88;100.00;77189.16;5054360;28;20067;-80
2023/01/31 05:21:17;;;;;;;9.27;2.47;;;;;;;-148.88;100.00;77162.75;5055857;28;20498;-80
2023/01/31 05:23:42;;;;;;;11.18;2.78;;;;;;;-148.88;100.00;77162.75;5055192;28;20029;-81
2023/01/31 05:26:07;;;;;;;17.00;3.53;;;;;;;-148.88;99.93;77130.25;5055225;28;20112;-82
2023/01/31 05:28:32;;;;;;;14.63;3.25;;;;;;;-148.88;100.00;77162.75;5056645;28;20076;-82
2023/01/31 05:31:04;;;;;;;20.42;3.70;;;;;;;-148.88;100.00;77132.28;5056751;28;20032;-80
2023/01/31 05:33:30;;;;;;;15.05;3.10;;;;;;;-148.88;100.00;77138.38;5056081;28;20028;-81
2023/01/31 05:35:56;;;;;;;12.10;2.63;;;;;;;-148.88;99.98;77124.16;5056683;28;20052;-80
2023/01/31 05:38:22;;;;;;;15.57;2.60;;;;;;;-148.88;98.75;77116.03;5054427;28;20070;-81
2023/01/31 05:40:49;;;;;;;12.38;3.47;;;;;;;-148.88;99.55;77124.16;5055428;28;20028;-80
2023/01/31 05:43:14;;;;;;;10.57;2.72;;;;;;;-148.88;99.06;77105.84;5054756;28;20116;-80
2023/01/31 05:45:40;;;;;;;13.15;2.85;;;;;;;-148.88;99.44;77118.06;5054708;28;20063;-80
2023/01/31 05:48:05;;;;;;;10.93;3.00;;;;;;;-148.88;99.07;77093.66;5059654;28;20025;-78
2023/01/31 05:50:30;;;;;;;14.35;3.25;;;;;;;-148.88;99.11;77085.53;5058032;28;20020;-80
2023/01/31 05:52:58;;;;;;;17.08;3.75;;;;;;;-148.88;99.83;77116.03;5059578;28;20035;-80
2023/01/31 05:55:24;;;;;;;11.07;3.70;;;;;;;-148.88;100.00;77097.72;5058642;28;20029;-81
2023/01/31 05:57:51;;;;;;;17.52;4.68;;;;;;;-148.88;99.73;77097.72;5059610;28;20380;-80
2023/01/31 06:00:16;;;;;;;10.05;3.08;;;;;;;-148.88;100.00;77089.59;5059211;28;20036;-80
2023/01/31 06:02:42;;;;;;;14.63;2.92;;;;;;;-148.88;99.59;77069.28;5058245;28;20025;-81
2023/01/31 06:05:08;;;;;;;19.23;3.20;;;;;;;-148.88;99.18;77073.34;5059669;28;20044;-81
2023/01/31 06:07:34;;;;;;;12.13;3.53;;;;;;;-148.88;97.99;77042.88;5059214;28;20052;-80
2023/01/31 06:09:59;;;;;;;19.02;3.45;;;;;;;-148.88;98.48;77053.03;5060135;28;20029;-81
2023/01/31 06:12:25;;;;;;;13.00;3.35;;;;;;;-148.88;99.62;77059.13;5060044;28;20060;-82
2023/01/31 06:14:50;;;;;;;20.15;3.95;;;;;;;-148.88;98.97;77036.78;5060349;28;20505;-82
2023/01/31 06:17:16;;;;;;;17.80;3.53;;;;;;;-148.88;98.85;77038.81;5059187;28;20486;-82
2023/01/31 06:19:41;;;;;;;23.08;3.65;;;;;;;-148.88;99.91;77061.16;5060406;28;20025;-83
2023/01/31 06:22:06;;;;;;;18.40;3.78;;;;;;;-148.88;99.98;77065.22;5059961;28;20032;-81
2023/01/31 06:24:32;;;;;;;15.30;3.80;;;;;;;-148.88;99.57;77032.72;5057970;28;20480;-81
2023/01/31 06:26:57;;;;;;;13.38;4.07;;;;;;;-148.88;100.00;77053.03;5059357;28;20088;-83
2023/01/31 06:29:23;;;;;;;12.95;3.70;;;;;;;-148.88;100.00;77028.66;5060152;28;20079;-82
2023/01/31 06:31:48;;;;;;;17.05;4.28;;;;;;;-148.88;99.38;77020.53;5061108;28;20029;-82
2023/01/31 06:34:13;;;;;;;19.30;4.47;;;;;;;-148.88;99.96;77051.00;5061860;28;20100;-83
2023/01/31 06:36:39;;;;;;;19.52;4.50;;;;;;;-148.88;99.66;77016.47;5061317;28;20169;-82
2023/01/31 06:39:04;;;;;;;18.15;5.75;;;;;;;-148.88;100.00;77040.84;5062494;28;20100;-81
2023/01/31 06:41:30;;;;;;;15.77;4.97;;;;;;;-148.88;100.00;77024.59;5063896;28;20470;-82
2023/01/31 06:43:55;;;;;;;25.63;6.07;;;;;;;-148.88;100.00;77040.84;5061239;28;20017;-83
2023/01/31 06:46:21;;;;;;;15.43;5.38;;;;;;;-148.88;99.89;77024.59;5062875;28;20025;-83
2023/01/31 06:48:49;;;;;;;24.02;5.63;;;;;;;-148.88;99.13;77004.25;5063224;28;20035;-83
2023/01/31 06:51:15;;;;;;;20.02;6.18;;;;;;;-148.88;99.67;77020.53;5062956;28;20560;-83
2023/01/31 06:53:41;;;;;;;22.02;6.57;;;;;;;-148.88;99.96;77014.44;5062203;28;20036;-83
2023/01/31 06:56:07;;;;;;;21.23;5.43;;;;;;;-148.88;99.49;77006.31;5063542;28;20021;-83
2023/01/31 06:58:32;;;;;;;13.82;5.50;;;;;;;-148.88;98.52;76981.91;5059043;28;20036;-83
2023/01/31 07:01:03;;;;;;;19.13;6.15;;;;;;;-148.88;99.04;77012.41;5062170;28;20025;-83
2023/01/31 07:03:29;;;;;;;18.77;5.78;;;;;;;-148.88;98.62;76971.75;5060000;28;20035;-83
2023/01/31 07:05:54;;;;;;;17.45;6.07;;;;;;;-148.88;99.00;77002.22;5058615;28;20048;-81
2023/01/31 07:08:19;;;;;;;26.80;5.93;;;;;;;-148.88;98.48;76967.69;5045121;28;20515;-82
2023/01/31 07:10:47;;;;;;;18.25;6.35;;;;;;;-148.88;98.31;76992.06;5036528;28;20184;-82
2023/01/31 07:13:13;;;;;;;16.58;6.70;;;;;;;-148.88;98.81;76973.78;5039085;28;20032;-83
2023/01/31 07:15:38;;;;;;;20.17;5.78;;;;;;;-148.88;98.62;76981.91;5037594;28;20392;-82
2023/01/31 07:18:05;;;;;;;19.83;6.53;;;;;;;-148.88;98.43;76967.69;5037501;28;20025;-83
2023/01/31 07:20:30;;;;;;;18.08;6.85;;;;;;;-148.88;99.55;76975.81;5045815;28;20027;-82
2023/01/31 07:22:57;;;;;;;19.63;6.80;;;;;;;-148.88;98.60;76963.63;5058652;28;20028;-83
2023/01/31 07:25:23;;;;;;;30.58;7.40;;;;;;;-148.88;98.47;76959.56;5057306;28;20032;-82
2023/01/31 07:27:48;;;;;;;20.17;6.50;;;;;;;-148.88;98.70;76967.69;5057097;28;20025;-83
2023/01/31 07:30:14;;;;;;;21.33;6.28;;;;;;;-148.88;98.55;76967.69;5059893;28;20036;-83
2023/01/31 07:32:39;;;;;;;17.90;5.72;;;;;;;-148.88;98.63;76965.66;5059500;28;20483;-83
2023/01/31 07:35:05;;;;;;;19.25;5.57;;;;;;;-148.88;97.75;76969.72;5055427;28;20493;-82
2023/01/31 07:37:30;;;;;;;21.42;6.68;;;;;;;-148.88;98.19;76979.88;5056653;28;20029;-82
2023/01/31 07:39:55;;;;;;;19.10;5.70;;;;;;;-148.88;98.22;76965.66;5056938;28;20084;-82
2023/01/31 07:42:21;;;;;;;26.40;5.82;;;;;;;-148.88;99.20;76975.81;5056187;28;20029;-82
2023/01/31 07:44:46;;;;;;;24.30;6.53;;;;;;;-148.88;97.98;76935.19;5055726;28;20052;-82
2023/01/31 07:47:11;;;;;;;17.52;5.38;;;;;;;-148.88;97.85;76939.25;5057335;28;20023;-82
2023/01/31 07:49:37;;;;;;;20.13;5.57;;;;;;;-148.88;98.70;76967.69;5058159;28;20056;-82
2023/01/31 07:52:02;;;;;;;20.60;6.93;;;;;;;-148.88;98.29;76963.63;5058284;28;20032;-82
2023/01/31 07:54:27;;;;;;;20.67;6.57;;;;;;;-148.88;98.17;76943.31;5056281;28;20024;-83
2023/01/31 07:56:52;;;;;;;18.67;5.47;;;;;;;-148.88;97.34;76900.66;5060038;28;20021;-82
2023/01/31 07:59:18;;;;;;;23.88;7.22;;;;;;;-148.88;97.76;76923.00;5057082;28;20028;-82
2023/01/31 08:04:27;;;;;;;;;;;;;;;-148.88;97.88;76908.78;5059897;28;20094;-83
2023/01/31 08:06:54;;;;;;;27.17;6.97;;;;;;;-148.88;98.18;76900.66;5065908;28;19923;-83
2023/01/31 08:09:20;;;;;;;23.10;7.05;;;;;;;-148.88;97.96;76918.94;5050822;28;20258;-83
2023/01/31 08:11:46;;;;;;;16.42;6.60;;;;;;;-148.88;97.79;76898.63;5057756;28;20104;-83
2023/01/31 08:14:11;;;;;;;20.90;7.18;;;;;;;-148.88;97.44;76900.66;5064675;28;20450;-83
2023/01/31 08:16:37;;;;;;;26.90;8.73;;;;;;;-148.88;98.35;76894.56;5073228;28;20051;-83
2023/01/31 08:19:03;;;;;;;18.10;6.78;;;;;;;-148.88;98.94;76908.78;5057290;28;20032;-82
2023/01/31 08:21:28;;;;;;;21.88;6.95;;;;;;;-148.88;98.70;76894.56;5070740;28;20028;-83
2023/01/31 08:23:53;;;;;;;25.15;7.43;;;;;;;-148.88;98.75;76898.63;5053986;28;20111;-83
2023/01/31 08:26:20;;;;;;;17.73;6.97;;;;;;;-148.88;99.07;76927.06;5066532;28;20114;-83
2023/01/31 08:28:48;;;;;;;26.67;7.25;;;;;;;-148.88;99.55;76892.53;5060705;28;20031;-83
2023/01/31 08:31:19;;;;;;;21.65;8.18;;;;;;;-148.88;99.09;76878.28;5072590;28;20099;-83
2023/01/31 08:33:45;;;;;;;21.10;7.15;;;;;;;-148.88;98.63;76874.22;5072679;28;20016;-83
2023/01/31 08:36:20;;;;;;;19.00;6.35;;;;;;;-148.88;98.84;76872.19;5065405;28;20055;-83
2023/01/31 08:38:46;;;;;;;16.70;6.63;;;;;;;-148.88;98.36;76835.63;5053206;28;20045;-83
2023/01/31 08:41:12;;;;;;;26.00;7.60;;;;;;;-148.88;99.56;76862.03;5055517;28;20036;-83
2023/01/31 08:43:38;;;;;;;21.92;6.85;;;;;;;-148.88;99.87;76851.88;5057061;28;20121;-82
2023/01/31 08:46:05;;;;;;;23.33;7.68;;;;;;;-148.88;100.00;76841.72;5063284;28;20589;-82
2023/01/31 08:48:34;;;;;;;18.25;7.25;;;;;;;-148.88;100.00;76855.94;5071549;28;20079;-83
2023/01/31 08:51:01;;;;;;;25.35;7.72;;;;;;;-148.88;100.00;76866.09;5056455;28;20051;-83
2023/01/31 08:53:26;;;;;;;25.17;7.70;;;;;;;-148.88;100.00;76866.09;5057488;28;20029;-82
2023/01/31 08:55:56;;;;;;;25.90;8.13;;;;;;;-148.88;100.00;76874.22;5057249;28;20449;-83
2023/01/31 08:58:21;;;;;;;19.38;7.07;;;;;;;-148.88;100.00;76878.28;5058125;28;20051;-83
2023/01/31 09:00:47;;;;;;;21.30;8.35;;;;;;;-148.88;100.00;76862.03;5056686;28;20053;-82
2023/01/31 09:03:17;;;;;;;20.83;7.18;;;;;;;-148.88;100.00;76837.66;5058078;28;20028;-80
2023/01/31 09:05:43;;;;;;;20.77;7.57;;;;;;;-148.88;100.00;76839.69;5056804;28;20383;-81
2023/01/31 09:08:09;;;;;;;25.08;7.35;;;;;;;-148.88;100.00;76837.66;5055597;28;20013;-81
2023/01/31 09:10:35;;;;;;;22.48;7.90;;;;;;;-148.88;100.00;76811.25;5057459;28;20092;-82
2023/01/31 09:13:00;;;;;;;24.95;8.82;;;;;;;-148.88;100.00;76835.63;5055821;28;20031;-82
2023/01/31 09:15:26;;;;;;;22.15;7.32;;;;;;;-148.88;100.00;76833.59;5057076;28;20025;-83
2023/01/31 09:17:51;;;;;;;20.25;7.75;;;;;;;-148.88;100.00;76819.38;5055741;28;20033;-82
2023/01/31 09:20:17;;;;;;;26.08;7.60;;;;;;;-148.88;100.00;76813.28;5056509;28;20028;-84
2023/01/31 09:22:43;;;;;;;25.50;7.85;;;;;;;-148.88;100.00;76825.47;5055128;28;20418;-82
2023/01/31 09:25:09;;;;;;;25.38;8.02;;;;;;;-148.88;100.00;76821.41;5053994;28;20055;-82
2023/01/31 09:27:36;;;;;;;17.25;7.40;;;;;;;-148.88;100.00;76839.69;5054225;28;20025;-83
2023/01/31 09:30:03;;;;;;;31.83;8.48;;;;;;;-148.88;100.00;76827.50;5052703;28;20056;-82
2023/01/31 09:32:29;;;;;;;23.80;7.93;;;;;;;-148.88;100.00;76845.78;5054117;28;20063;-83
2023/01/31 09:34:54;;;;;;;22.55;7.97;;;;;;;-148.88;100.00;76817.34;5054496;28;20025;-82
2023/01/31 09:37:19;;;;;;;20.92;7.05;;;;;;;-148.88;100.00;76819.38;5053110;28;20124;-83
2023/01/31 09:39:44;;;;;;;24.50;7.32;;;;;;;-148.88;100.00;76809.22;5055243;28;20021;-83
2023/01/31 09:42:33;;;;;;;33.47;8.27;;;;;;;-148.88;100.00;76805.16;5055958;28;20111;-83
2023/01/31 09:45:11;;;;;;;15.52;6.53;;;;;;;-148.88;100.00;76809.22;5054105;28;20021;-83
2023/01/31 09:47:39;;;;;;;16.90;7.25;;;;;;;-148.88;100.00;76819.38;5054397;28;20025;-83
2023/01/31 09:50:06;;;;;;;18.50;6.50;;;;;;;-148.88;100.00;76801.09;5053695;28;20024;-83
2023/01/31 09:52:32;;;;;;;24.50;7.07;;;;;;;-148.88;100.00;76809.22;5056122;28;20155;-83
2023/01/31 09:54:59;;;;;;;18.55;6.85;;;;;;;-148.88;100.00;76801.09;5055754;28;20511;-82
2023/01/31 09:57:52;;;;;;;27.33;7.22;;;;;;;-148.88;100.00;76780.78;5054728;28;20021;-83
2023/01/31 10:00:24;;;;;;;19.58;7.30;;;;;;;-148.88;100.00;76752.31;5051739;28;20041;-82
2023/01/31 10:03:17;;;;;;;17.35;7.57;;;;;;;-148.88;100.00;76782.81;5053886;28;20044;-82
2023/01/31 10:05:54;;;;;;;21.35;7.70;;;;;;;-148.88;100.00;76788.91;5053945;28;20031;-83
2023/01/31 10:08:45;;;;;;;17.55;6.72;;;;;;;-148.88;100.00;76770.63;5055119;28;20028;-83
2023/01/31 10:11:26;;;;;;;21.67;7.13;;;;;;;-148.88;100.00;76768.59;5052685;28;20110;-83
2023/01/31 10:13:57;;;;;;;20.60;7.80;;;;;;;-148.88;100.00;76760.44;5054493;28;20429;-82
2023/01/31 10:16:40;;;;;;;15.93;7.18;;;;;;;-148.88;100.00;76788.91;5054880;28;20066;-82
2023/01/31 10:19:15;;;;;;;24.42;6.38;;;;;;;-148.88;100.00;76756.41;5055775;28;20021;-83
2023/01/31 10:21:49;;;;;;;19.65;6.78;;;;;;;-148.88;100.00;76795.00;5054671;28;20029;-83
2023/01/31 10:24:27;;;;;;;27.80;6.63;;;;;;;-148.88;100.00;76738.09;5054289;28;20037;-84
2023/01/31 10:26:56;;;;;;;22.83;6.80;;;;;;;-148.88;100.00;76734.03;5055262;28;20107;-83
2023/01/31 10:29:33;;;;;;;24.50;6.80;;;;;;;-148.88;100.00;76719.81;5056612;28;20039;-82
2023/01/31 10:32:03;;;;;;;19.38;7.30;;;;;;;-148.88;100.00;76740.13;5056064;28;20137;-84
2023/01/31 10:34:39;;;;;;;21.23;6.60;;;;;;;-148.88;100.00;76734.03;5058940;28;20032;-84
2023/01/31 10:37:12;;;;;;;13.63;5.88;;;;;;;-148.88;100.00;76740.13;5056528;28;20112;-82
2023/01/31 10:39:37;;;;;;;20.80;6.53;;;;;;;-148.88;99.96;76717.78;5056979;28;20024;-81
2023/01/31 10:42:21;;;;;;;21.23;6.93;;;;;;;-148.88;99.79;76699.50;5055533;28;20107;-82
2023/01/31 10:44:53;;;;;;;16.75;6.38;;;;;;;-148.88;100.00;76727.94;5057331;28;20432;-82
2023/01/31 10:47:23;;;;;;;26.48;8.00;;;;;;;-148.88;100.00;76699.50;5055973;28;20399;-82
2023/01/31 10:49:50;;;;;;;22.98;7.63;;;;;;;-148.88;99.99;76707.63;5055973;28;20063;-82
2023/01/31 10:52:39;;;;;;;23.45;6.72;;;;;;;-148.88;99.78;76703.56;5056495;28;20064;-83
2023/01/31 10:55:36;;;;;;;22.38;7.13;;;;;;;-148.88;100.00;76711.69;5057632;28;20020;-83
2023/01/31 10:58:02;;;;;;;19.70;6.57;;;;;;;-148.88;99.40;76677.16;5026767;28;20048;-83
2023/01/31 11:00:30;;;;;;;19.00;6.50;;;;;;;-148.88;99.74;76675.13;5059690;28;20036;-84
2023/01/31 11:02:57;;;;;;;19.88;8.30;;;;;;;-148.88;100.00;76732.00;5057798;28;20017;-82
2023/01/31 11:05:26;;;;;;;16.73;7.18;;;;;;;-148.88;100.00;76695.44;5058214;28;20533;-83
2023/01/31 11:07:52;;;;;;;23.23;7.82;;;;;;;-148.88;100.00;76660.91;5057760;28;20028;-82
2023/01/31 11:10:23;;;;;;;19.25;6.75;;;;;;;-148.88;100.00;76683.25;5059656;28;20099;-83
2023/01/31 11:13:00;;;;;;;20.75;7.78;;;;;;;-148.88;100.00;76614.19;5056225;28;20025;-82
2023/01/31 11:15:28;;;;;;;17.60;6.63;;;;;;;-148.88;100.00;76632.47;5056122;28;20024;-82
2023/01/31 11:17:58;;;;;;;15.57;6.93;;;;;;;-148.88;100.00;76634.50;5056251;28;20032;-82
2023/01/31 11:20:28;;;;;;;22.77;8.30;;;;;;;-148.88;100.00;76632.47;5055932;28;20468;-82